createdAt,value
2022-12-20T00:00:52.506Z,-0.40
2022-12-20T00:03:20.651Z,-0.40
2022-12-20T00:05:48.834Z,-0.40
2022-12-20T00:08:16.034Z,-0.40
2022-12-20T00:10:45.186Z,-0.40
2022-12-20T00:13:12.596Z,-0.40
2022-12-20T00:15:39.272Z,-0.40
2022-12-20T00:18:06.263Z,-0.50
2022-12-20T00:20:33.173Z,-0.40
2022-12-20T00:22:59.841Z,-0.40
2022-12-20T00:25:26.620Z,-0.40
2022-12-20T00:27:53.322Z,-0.30
2022-12-20T00:30:20.320Z,-0.30
2022-12-20T00:32:47.344Z,-0.30
2022-12-20T00:35:14.148Z,-0.30
2022-12-20T00:37:40.911Z,-0.40
2022-12-20T00:40:08.294Z,-0.40
2022-12-20T00:42:34.990Z,-0.40
2022-12-20T00:45:01.711Z,-0.40
2022-12-20T00:47:28.420Z,-0.40
2022-12-20T00:49:55.098Z,-0.40
2022-12-20T00:52:22.513Z,-0.40
2022-12-20T00:54:49.204Z,-0.40
2022-12-20T00:57:15.910Z,-0.40
2022-12-20T00:59:42.592Z,-0.40
2022-12-20T01:02:09.458Z,-0.40
2022-12-20T01:04:36.321Z,-0.40
2022-12-20T01:07:03.452Z,-0.50
2022-12-20T01:09:30.150Z,-0.50
2022-12-20T01:11:56.869Z,-0.50
2022-12-20T01:14:23.632Z,-0.50
2022-12-20T01:16:50.417Z,-0.60
2022-12-20T01:19:18.318Z,-0.70
2022-12-20T01:21:45.285Z,-0.70
2022-12-20T01:24:16.271Z,-0.80
2022-12-20T01:26:43.344Z,-0.80
2022-12-20T01:29:10.506Z,-0.80
2022-12-20T01:31:37.341Z,-0.70
2022-12-20T01:34:04.265Z,-0.70
2022-12-20T01:36:34.260Z,-0.70
2022-12-20T01:39:06.808Z,-0.70
2022-12-20T01:41:35.085Z,-0.80
2022-12-20T01:44:25.806Z,-0.80
2022-12-20T01:46:53.841Z,-0.80
2022-12-20T01:49:24.475Z,-0.80
2022-12-20T01:52:06.363Z,-0.80
2022-12-20T01:54:38.752Z,-0.80
2022-12-20T01:57:14.514Z,-0.80
2022-12-20T01:59:46.312Z,-0.80
2022-12-20T02:02:13.716Z,-0.90
2022-12-20T02:04:41.282Z,-0.90
2022-12-20T02:07:09.832Z,-0.90
2022-12-20T02:09:38.702Z,-0.90
2022-12-20T02:12:17.559Z,-0.90
2022-12-20T02:14:59.509Z,-0.90
2022-12-20T02:18:00.511Z,-0.90
2022-12-20T02:20:35.998Z,-0.90
2022-12-20T02:23:17.776Z,-0.90
2022-12-20T02:26:04.777Z,-0.90
2022-12-20T02:28:49.641Z,-0.90
2022-12-20T02:31:19.694Z,-1.00
2022-12-20T02:33:48.731Z,-1.10
2022-12-20T02:36:18.092Z,-1.10
2022-12-20T02:38:46.245Z,-1.00
2022-12-20T02:41:27.227Z,-1.10
2022-12-20T02:44:18.337Z,-1.10
2022-12-20T02:46:46.145Z,-1.10
2022-12-20T02:49:16.835Z,-1.10
2022-12-20T02:51:47.134Z,-1.20
2022-12-20T02:54:15.266Z,-1.10
2022-12-20T02:56:47.571Z,-1.10
2022-12-20T02:59:21.084Z,-1.20
2022-12-20T03:01:57.758Z,-1.20
2022-12-20T03:04:34.181Z,-1.20
2022-12-20T03:07:01.986Z,-1.20
2022-12-20T03:09:32.158Z,-1.20
2022-12-20T03:11:59.338Z,-1.20
2022-12-20T03:14:26.265Z,-1.20
2022-12-20T03:16:55.269Z,-1.20
2022-12-20T03:19:22.431Z,-1.20
2022-12-20T03:21:49.117Z,-1.20
2022-12-20T03:24:16.121Z,-1.20
2022-12-20T03:26:43.506Z,-1.20
2022-12-20T03:29:10.444Z,-1.20
2022-12-20T03:31:37.919Z,-1.20
2022-12-20T03:34:05.488Z,-1.20
2022-12-20T03:36:32.824Z,-1.10
2022-12-20T03:39:02.298Z,-1.10
2022-12-20T03:41:32.829Z,-1.10
2022-12-20T03:43:59.970Z,-1.10
2022-12-20T03:46:27.997Z,-1.10
2022-12-20T03:48:55.211Z,-1.10
2022-12-20T03:51:22.827Z,-1.00
2022-12-20T03:53:49.962Z,-0.90
2022-12-20T03:56:17.181Z,-0.90
2022-12-20T03:58:44.126Z,-0.90
2022-12-20T04:01:22.865Z,-0.90
2022-12-20T04:03:51.043Z,-0.90
2022-12-20T04:06:18.995Z,-0.90
2022-12-20T04:08:46.325Z,-0.90
2022-12-20T04:11:20.446Z,-0.90
2022-12-20T04:13:54.103Z,-0.90
2022-12-20T04:16:27.775Z,-0.80
2022-12-20T04:18:55.551Z,-0.80
2022-12-20T04:21:32.546Z,-0.80
2022-12-20T04:24:01.232Z,-0.70
2022-12-20T04:26:46.313Z,-0.70
2022-12-20T04:29:13.942Z,-0.60
2022-12-20T04:31:42.317Z,-0.50
2022-12-20T04:34:09.667Z,-0.50
2022-12-20T04:36:36.813Z,-0.50
2022-12-20T04:39:07.304Z,-0.50
2022-12-20T04:41:43.701Z,-0.60
2022-12-20T04:44:13.140Z,-0.60
2022-12-20T04:46:39.926Z,-0.50
2022-12-20T04:49:11.331Z,-0.50
2022-12-20T04:51:40.434Z,-0.50
2022-12-20T04:54:07.175Z,-0.50
2022-12-20T04:56:45.906Z,-0.40
2022-12-20T04:59:17.429Z,-0.40
2022-12-20T05:01:46.484Z,-0.40
2022-12-20T05:04:19.568Z,-0.40
2022-12-20T05:06:46.249Z,-0.50
2022-12-20T05:09:14.201Z,-0.40
2022-12-20T05:11:40.936Z,-0.40
2022-12-20T05:14:08.732Z,-0.50
2022-12-20T05:16:35.628Z,-0.50
2022-12-20T05:19:03.263Z,-0.40
2022-12-20T05:21:50.883Z,-0.40
2022-12-20T05:24:36.155Z,-0.40
2022-12-20T05:27:17.090Z,-0.40
2022-12-20T05:29:44.100Z,-0.40
2022-12-20T05:32:10.795Z,-0.40
2022-12-20T05:34:40.740Z,-0.30
2022-12-20T05:37:07.535Z,-0.30
2022-12-20T05:39:36.835Z,-0.30
2022-12-20T05:42:09.276Z,-0.40
2022-12-20T05:44:36.771Z,-0.40
2022-12-20T05:47:03.604Z,-0.40
2022-12-20T05:49:33.126Z,-0.40
2022-12-20T05:52:02.416Z,-0.40
2022-12-20T05:54:29.578Z,-0.40
2022-12-20T05:57:10.256Z,-0.40
2022-12-20T05:59:39.516Z,-0.40
2022-12-20T06:02:10.787Z,-0.30
2022-12-20T06:04:38.834Z,-0.30
2022-12-20T06:07:13.394Z,-0.30
2022-12-20T06:09:42.325Z,-0.40
2022-12-20T06:12:13.930Z,-0.40
2022-12-20T06:14:40.847Z,-0.40
2022-12-20T06:17:07.841Z,-0.40
2022-12-20T06:19:34.681Z,-0.40
2022-12-20T06:22:03.419Z,-0.50
2022-12-20T06:24:47.622Z,-0.40
2022-12-20T06:27:15.505Z,-0.30
2022-12-20T06:29:49.351Z,-0.30
2022-12-20T06:32:16.467Z,-0.20
2022-12-20T06:34:43.846Z,-0.10
2022-12-20T06:37:11.897Z,-0.10
2022-12-20T06:39:39.175Z,-0.10
2022-12-20T06:42:08.221Z,-0.10
2022-12-20T06:44:36.144Z,-0.10
2022-12-20T06:47:03.012Z,-0.10
2022-12-20T06:49:30.379Z,-0.20
2022-12-20T06:51:57.658Z,-0.10
2022-12-20T06:54:42.897Z,-0.10
2022-12-20T06:57:09.782Z,-0.20
2022-12-20T06:59:37.810Z,-0.20
2022-12-20T07:02:05.498Z,-0.10
2022-12-20T07:04:34.152Z,-0.20
2022-12-20T07:07:00.951Z,-0.20
2022-12-20T07:09:27.606Z,-0.20
2022-12-20T07:11:54.308Z,-0.20
2022-12-20T07:14:21.145Z,-0.10
2022-12-20T07:16:48.027Z,-0.10
2022-12-20T07:19:15.495Z,-0.20
2022-12-20T07:21:43.044Z,-0.20
2022-12-20T07:24:10.581Z,-0.20
2022-12-20T07:26:37.289Z,-0.20
2022-12-20T07:29:04.178Z,-0.30
2022-12-20T07:31:31.015Z,-0.20
2022-12-20T07:33:57.744Z,-0.20
2022-12-20T07:36:24.510Z,-0.20
2022-12-20T07:38:51.643Z,-0.10
2022-12-20T07:41:21.711Z,-0.10
2022-12-20T07:43:48.412Z,0.00
2022-12-20T07:46:15.846Z,0.00
2022-12-20T07:48:42.930Z,0.00
2022-12-20T07:51:18.004Z,0.00
2022-12-20T07:53:52.920Z,0.10
2022-12-20T07:56:22.336Z,0.10
2022-12-20T07:58:53.974Z,0.10
2022-12-20T08:01:21.434Z,0.20
2022-12-20T08:03:53.250Z,0.30
2022-12-20T08:06:20.610Z,0.40
2022-12-20T08:08:51.273Z,0.40
2022-12-20T08:11:19.616Z,0.40
2022-12-20T08:13:48.805Z,0.50
2022-12-20T08:16:18.290Z,0.60
2022-12-20T08:18:45.009Z,0.70
2022-12-20T08:21:13.057Z,0.70
2022-12-20T08:23:39.822Z,0.70
2022-12-20T08:26:06.955Z,0.80
2022-12-20T08:28:34.267Z,0.80
2022-12-20T08:31:06.737Z,0.80
2022-12-20T08:33:35.091Z,0.90
2022-12-20T08:36:04.447Z,0.90
2022-12-20T08:38:32.115Z,1.10
2022-12-20T08:41:07.653Z,1.10
2022-12-20T08:43:34.989Z,1.10
2022-12-20T08:46:02.116Z,1.10
2022-12-20T08:48:29.499Z,1.10
2022-12-20T08:50:58.043Z,1.10
2022-12-20T08:53:25.167Z,1.20
2022-12-20T08:55:52.816Z,1.20
2022-12-20T08:58:20.712Z,1.30
2022-12-20T09:00:47.643Z,1.30
2022-12-20T09:03:15.332Z,1.30
2022-12-20T09:05:47.245Z,1.20
2022-12-20T09:08:15.468Z,1.10
2022-12-20T09:10:42.578Z,1.20
2022-12-20T09:13:10.526Z,1.30
2022-12-20T09:15:37.978Z,1.40
2022-12-20T09:18:05.658Z,1.60
2022-12-20T09:20:32.854Z,1.70
2022-12-20T09:23:00.589Z,1.70
2022-12-20T09:25:27.974Z,1.80
2022-12-20T09:27:56.480Z,1.90
2022-12-20T09:30:23.697Z,2.00
2022-12-20T09:32:50.985Z,2.10
2022-12-20T09:35:22.796Z,2.10
2022-12-20T09:37:50.050Z,2.10
2022-12-20T09:40:20.948Z,2.00
2022-12-20T09:42:49.586Z,2.10
2022-12-20T09:45:29.262Z,2.20
2022-12-20T09:47:56.085Z,2.20
2022-12-20T09:50:43.745Z,2.40
2022-12-20T09:53:31.256Z,2.50
2022-12-20T09:56:05.840Z,2.60
2022-12-20T09:59:05.421Z,2.70
2022-12-20T10:01:39.534Z,2.80
2022-12-20T10:04:23.909Z,2.90
2022-12-20T10:07:29.606Z,2.90
2022-12-20T10:10:41.806Z,3.00
2022-12-20T10:13:29.936Z,3.00
2022-12-20T10:16:08.594Z,3.10
2022-12-20T10:18:46.905Z,3.30
2022-12-20T10:21:46.280Z,3.30
2022-12-20T10:24:19.887Z,3.10
2022-12-20T10:26:50.740Z,2.80
2022-12-20T10:29:18.803Z,2.80
2022-12-20T10:31:45.525Z,2.90
2022-12-20T10:34:12.246Z,2.90
2022-12-20T10:36:38.977Z,3.10
2022-12-20T10:39:09.898Z,3.20
2022-12-20T10:41:42.849Z,3.30
2022-12-20T10:44:22.709Z,3.50
2022-12-20T10:46:56.812Z,3.50
2022-12-20T10:49:32.219Z,3.50
2022-12-20T10:52:09.441Z,3.60
2022-12-20T10:54:38.578Z,3.70
2022-12-20T10:57:25.156Z,3.70
2022-12-20T10:59:54.988Z,3.80
2022-12-20T11:02:41.591Z,3.90
2022-12-20T11:05:12.246Z,3.80
2022-12-20T11:10:45.805Z,3.80
2022-12-20T11:13:26.448Z,3.80
2022-12-20T11:15:57.302Z,3.80
2022-12-20T11:18:44.865Z,3.80
2022-12-20T11:21:38.284Z,3.90
2022-12-20T11:24:37.707Z,3.90
2022-12-20T11:27:15.602Z,3.80
2022-12-20T11:30:04.218Z,3.70
2022-12-20T11:32:52.456Z,3.70
2022-12-20T11:35:22.151Z,3.60
2022-12-20T11:38:36.049Z,3.60
2022-12-20T11:41:33.919Z,3.70
2022-12-20T11:44:36.230Z,3.70
2022-12-20T11:47:36.298Z,3.80
2022-12-20T11:50:54.046Z,3.90
2022-12-20T11:53:53.851Z,3.90
2022-12-20T11:56:44.698Z,3.90
2022-12-20T11:59:32.543Z,3.90
2022-12-20T12:02:12.499Z,3.90
2022-12-20T12:04:45.245Z,3.90
2022-12-20T12:07:20.463Z,3.80
2022-12-20T12:09:56.597Z,3.80
2022-12-20T12:12:42.483Z,3.80
2022-12-20T12:15:20.725Z,3.50
2022-12-20T12:18:01.032Z,3.50
2022-12-20T12:21:08.303Z,3.40
2022-12-20T12:23:49.461Z,3.40
2022-12-20T12:26:24.874Z,3.40
2022-12-20T12:28:55.871Z,3.40
2022-12-20T12:31:45.980Z,3.40
2022-12-20T12:34:40.579Z,3.50
2022-12-20T12:37:29.349Z,3.30
2022-12-20T12:40:34.111Z,3.30
2022-12-20T12:43:31.465Z,3.20
2022-12-20T12:46:08.406Z,3.10
2022-12-20T12:48:43.543Z,3.10
2022-12-20T12:51:10.974Z,3.10
2022-12-20T12:53:42.016Z,3.20
2022-12-20T12:56:44.558Z,3.40
2022-12-20T12:59:12.588Z,3.70
2022-12-20T13:01:50.193Z,3.70
2022-12-20T13:04:19.734Z,4.00
2022-12-20T13:06:49.810Z,4.20
2022-12-20T13:09:37.993Z,4.40
2022-12-20T13:12:47.355Z,4.50
2022-12-20T13:15:20.149Z,4.70
2022-12-20T13:17:54.447Z,4.70
2022-12-20T13:20:35.701Z,4.70
2022-12-20T13:23:05.503Z,4.70
2022-12-20T13:25:32.461Z,4.50
2022-12-20T13:28:24.055Z,4.40
2022-12-20T13:30:53.900Z,4.30
2022-12-20T13:33:24.023Z,4.20
2022-12-20T13:36:03.514Z,4.20
2022-12-20T13:38:45.527Z,4.00
2022-12-20T13:41:29.585Z,4.00
2022-12-20T13:44:16.327Z,3.90
2022-12-20T13:47:04.610Z,3.90
2022-12-20T13:49:43.698Z,3.80
2022-12-20T13:52:25.166Z,3.80
2022-12-20T13:54:55.990Z,3.80
2022-12-20T13:57:29.729Z,3.60
2022-12-20T14:00:05.727Z,3.60
2022-12-20T14:02:42.399Z,3.60
2022-12-20T14:05:32.198Z,3.60
2022-12-20T14:08:05.391Z,3.50
2022-12-20T14:10:33.510Z,3.50
2022-12-20T14:13:00.281Z,3.50
2022-12-20T14:15:26.919Z,3.40
2022-12-20T14:17:53.720Z,3.40
2022-12-20T14:20:23.519Z,3.40
2022-12-20T14:23:05.636Z,3.30
2022-12-20T14:25:46.791Z,3.30
2022-12-20T14:28:29.790Z,3.20
2022-12-20T14:30:58.794Z,3.10
2022-12-20T14:33:35.300Z,3.20
2022-12-20T14:36:20.937Z,3.10
2022-12-20T14:38:52.187Z,3.10
2022-12-20T14:41:38.996Z,3.10
2022-12-20T14:44:21.523Z,3.10
2022-12-20T14:46:53.324Z,3.10
2022-12-20T14:49:32.675Z,3.10
2022-12-20T14:52:11.681Z,3.10
2022-12-20T14:55:07.857Z,3.50
2022-12-20T14:57:35.274Z,3.80
2022-12-20T15:00:19.022Z,3.80
2022-12-20T15:02:49.491Z,3.70
2022-12-20T15:05:34.745Z,3.50
2022-12-20T15:08:32.664Z,3.30
2022-12-20T15:11:08.554Z,3.10
2022-12-20T15:13:42.010Z,3.00
2022-12-20T15:16:17.293Z,2.90
2022-12-20T15:18:45.260Z,2.90
2022-12-20T15:21:37.384Z,2.90
2022-12-20T15:24:09.732Z,2.80
2022-12-20T15:26:37.036Z,2.80
2022-12-20T15:29:04.513Z,2.80
2022-12-20T15:31:34.793Z,2.70
2022-12-20T15:34:05.031Z,2.70
2022-12-20T15:36:33.498Z,2.70
2022-12-20T15:39:15.843Z,2.60
2022-12-20T15:41:48.717Z,2.70
2022-12-20T15:44:18.964Z,2.60
2022-12-20T15:46:45.772Z,2.50
2022-12-20T15:49:23.860Z,2.50
2022-12-20T15:51:52.314Z,2.30
2022-12-20T15:54:26.493Z,2.30
2022-12-20T15:56:58.826Z,2.30
2022-12-20T15:59:58.407Z,2.30
2022-12-20T16:02:27.589Z,2.40
2022-12-20T16:04:55.353Z,2.40
2022-12-20T16:07:22.746Z,2.40
2022-12-20T16:09:49.579Z,2.40
2022-12-20T16:12:19.083Z,2.40
2022-12-20T16:14:45.893Z,2.40
2022-12-20T16:17:14.351Z,2.40
2022-12-20T16:19:42.264Z,2.40
2022-12-20T16:22:16.507Z,2.40
2022-12-20T16:24:43.524Z,2.40
2022-12-20T16:27:10.418Z,2.40
2022-12-20T16:29:37.080Z,2.40
2022-12-20T16:32:07.975Z,2.40
2022-12-20T16:34:34.698Z,2.40
2022-12-20T16:37:01.640Z,2.40
2022-12-20T16:39:28.453Z,2.30
2022-12-20T16:41:55.156Z,2.40
2022-12-20T16:44:22.908Z,2.40
2022-12-20T16:46:49.641Z,2.30
2022-12-20T16:49:20.350Z,2.30
2022-12-20T16:51:48.807Z,2.30
2022-12-20T16:54:20.552Z,2.30
2022-12-20T16:56:51.897Z,2.30
2022-12-20T16:59:21.663Z,2.30
2022-12-20T17:01:51.548Z,2.20
2022-12-20T17:04:19.340Z,2.20
2022-12-20T17:06:46.671Z,2.20
2022-12-20T17:09:13.660Z,2.20
2022-12-20T17:11:40.312Z,2.20
2022-12-20T17:14:12.281Z,2.20
2022-12-20T17:16:39.851Z,2.10
2022-12-20T17:19:06.670Z,2.10
2022-12-20T17:24:28.783Z,2.10
2022-12-20T17:26:55.629Z,2.00
2022-12-20T17:29:22.308Z,2.00
2022-12-20T17:31:49.935Z,2.00
2022-12-20T17:34:20.981Z,2.00
2022-12-20T17:36:49.315Z,2.10
2022-12-20T17:39:16.408Z,2.00
2022-12-20T17:41:44.052Z,2.00
2022-12-20T17:44:18.912Z,2.00
2022-12-20T17:46:45.889Z,1.90
2022-12-20T17:49:12.949Z,1.90
2022-12-20T17:51:39.822Z,1.90
2022-12-20T17:54:06.656Z,1.90
2022-12-20T17:56:35.897Z,1.80
2022-12-20T17:59:06.996Z,1.80
2022-12-20T18:01:35.385Z,1.80
2022-12-20T18:04:06.737Z,1.80
2022-12-20T18:06:37.473Z,1.70
2022-12-20T18:09:08.083Z,1.70
2022-12-20T18:11:35.030Z,1.60
2022-12-20T18:14:03.521Z,1.60
2022-12-20T18:16:32.302Z,1.60
2022-12-20T18:18:58.997Z,1.70
2022-12-20T18:21:27.180Z,1.70
2022-12-20T18:23:54.814Z,1.60
2022-12-20T18:26:30.709Z,1.60
2022-12-20T18:29:00.321Z,1.60
2022-12-20T18:31:29.176Z,1.80
2022-12-20T18:33:58.240Z,1.80
2022-12-20T18:36:34.603Z,1.80
2022-12-20T18:39:04.485Z,1.80
2022-12-20T18:41:31.581Z,1.70
2022-12-20T18:44:03.114Z,1.70
2022-12-20T18:46:29.919Z,1.60
2022-12-20T18:48:58.382Z,1.70
2022-12-20T18:51:38.969Z,1.70
2022-12-20T18:54:07.813Z,1.70
2022-12-20T18:56:36.833Z,1.70
2022-12-20T18:59:10.965Z,1.70
2022-12-20T19:01:39.922Z,1.60
2022-12-20T19:04:07.735Z,1.50
2022-12-20T19:06:34.954Z,1.60
2022-12-20T19:09:03.575Z,1.70
2022-12-20T19:11:30.304Z,1.80
2022-12-20T19:13:57.081Z,1.80
2022-12-20T19:16:26.308Z,1.70
2022-12-20T19:18:53.011Z,1.60
2022-12-20T19:21:24.861Z,1.70
2022-12-20T19:23:53.705Z,1.70
2022-12-20T19:26:22.001Z,1.70
2022-12-20T19:28:48.977Z,1.80
2022-12-20T19:31:30.145Z,1.80
2022-12-20T19:34:01.121Z,1.80
2022-12-20T19:36:35.611Z,1.80
2022-12-20T19:39:05.606Z,1.80
2022-12-20T19:41:34.414Z,1.90
2022-12-20T19:44:01.766Z,1.90
2022-12-20T19:46:30.022Z,1.80
2022-12-20T19:48:58.926Z,1.80
2022-12-20T19:51:27.578Z,1.90
2022-12-20T19:53:55.620Z,1.90
2022-12-20T19:56:33.814Z,1.90
2022-12-20T19:59:00.915Z,1.90
2022-12-20T20:01:28.249Z,1.90
2022-12-20T20:03:56.825Z,1.90
2022-12-20T20:06:24.054Z,1.90
2022-12-20T20:08:50.996Z,1.90
2022-12-20T20:11:19.211Z,1.90
2022-12-20T20:13:46.597Z,1.90
2022-12-20T20:16:18.423Z,1.90
2022-12-20T20:18:49.128Z,1.90
2022-12-20T20:21:20.944Z,1.90
2022-12-20T20:23:48.267Z,1.90
2022-12-20T20:26:18.393Z,2.00
2022-12-20T20:28:45.740Z,1.90
2022-12-20T20:31:14.792Z,1.90
2022-12-20T20:33:42.560Z,1.90
2022-12-20T20:36:13.178Z,2.00
2022-12-20T20:38:40.139Z,2.00
2022-12-20T20:41:07.198Z,2.00
2022-12-20T20:43:36.752Z,2.00
2022-12-20T20:46:06.726Z,2.00
2022-12-20T20:48:34.022Z,2.00
2022-12-20T20:51:00.726Z,2.00
2022-12-20T20:53:32.979Z,1.90
2022-12-20T20:56:01.641Z,1.90
2022-12-20T20:58:28.516Z,1.90
2022-12-20T21:01:00.307Z,1.90
2022-12-20T21:03:28.549Z,1.90
2022-12-20T21:08:42.839Z,2.00
2022-12-20T21:11:09.967Z,2.00
2022-12-20T21:13:36.934Z,2.00
2022-12-20T21:16:09.389Z,1.90
2022-12-20T21:18:36.086Z,2.00
2022-12-20T21:21:13.367Z,2.00
2022-12-20T21:23:45.064Z,2.00
2022-12-20T21:26:12.350Z,2.00
2022-12-20T21:28:43.787Z,2.10
2022-12-20T21:31:12.816Z,2.10
2022-12-20T21:33:40.627Z,2.10
2022-12-20T21:36:13.789Z,2.00
2022-12-20T21:38:40.920Z,2.10
2022-12-20T21:41:10.757Z,2.20
2022-12-20T21:43:37.787Z,2.20
2022-12-20T21:46:04.668Z,2.20
2022-12-20T21:48:31.432Z,2.20
2022-12-20T21:51:03.480Z,2.10
2022-12-20T21:53:31.395Z,2.10
2022-12-20T21:55:59.193Z,2.20
2022-12-20T21:58:26.735Z,2.20
2022-12-20T22:00:55.340Z,2.10
2022-12-20T22:03:23.486Z,2.20
2022-12-20T22:05:52.971Z,2.20
2022-12-20T22:08:20.797Z,2.10
2022-12-20T22:10:49.660Z,2.10
2022-12-20T22:13:16.543Z,2.10
2022-12-20T22:15:43.307Z,2.10
2022-12-20T22:18:10.084Z,2.10
2022-12-20T22:20:36.871Z,2.10
2022-12-20T22:23:04.248Z,2.10
2022-12-20T22:25:31.600Z,2.10
2022-12-20T22:27:58.679Z,2.10
2022-12-20T22:30:25.428Z,2.10
2022-12-20T22:32:52.098Z,2.10
2022-12-20T22:35:22.668Z,2.20
2022-12-20T22:37:52.771Z,2.10
2022-12-20T22:40:19.686Z,2.10
2022-12-20T22:42:46.384Z,2.10
2022-12-20T22:45:13.085Z,2.10
2022-12-20T22:47:42.957Z,2.10
2022-12-20T22:50:10.527Z,2.10
2022-12-20T22:52:37.213Z,2.20
2022-12-20T22:55:04.159Z,2.20
2022-12-20T22:57:32.721Z,2.10
2022-12-20T22:59:59.488Z,2.20
2022-12-20T23:02:27.334Z,2.10
2022-12-20T23:04:54.306Z,2.10
2022-12-20T23:07:21.628Z,2.10
2022-12-20T23:09:48.760Z,2.10
2022-12-20T23:12:34.280Z,2.10
2022-12-20T23:15:06.720Z,2.10
2022-12-20T23:17:33.646Z,2.10
2022-12-20T23:20:18.903Z,2.20
2022-12-20T23:22:45.811Z,2.20
2022-12-20T23:25:16.071Z,2.20
2022-12-20T23:27:44.306Z,2.20
2022-12-20T23:30:14.108Z,2.10
2022-12-20T23:32:47.524Z,2.10
2022-12-20T23:35:16.432Z,2.10
2022-12-20T23:37:43.290Z,2.10
2022-12-20T23:40:11.107Z,2.00
2022-12-20T23:42:38.415Z,2.00
2022-12-20T23:45:05.585Z,2.00
2022-12-20T23:47:32.798Z,2.00
2022-12-20T23:49:59.515Z,2.00
2022-12-20T23:52:26.218Z,2.10
2022-12-20T23:54:52.884Z,2.10
2022-12-20T23:57:19.627Z,2.10
2022-12-20T23:59:46.295Z,2.10
